CDT,Max TemperatureF,Mean TemperatureF,Min TemperatureF,Max Dew PointF,MeanDew PointF,Min DewpointF,Max Humidity, Mean Humidity, Min Humidity, Max Sea Level PressureIn, Mean Sea Level PressureIn, Min Sea Level PressureIn, Max VisibilityMiles, Mean VisibilityMiles, Min VisibilityMiles, Max Wind SpeedMPH, Mean Wind SpeedMPH, Max Gust SpeedMPH,PrecipitationIn, CloudCover, Events, WindDirDegrees
2012-9-1,82,73,64,61,53,46,73,51,30,30.09,30.05,30.01,10,10,10,18,9,23,0.00,0,,69
2012-9-2,87,74,60,66,61,54,78,65,46,30.03,29.97,29.91,10,10,10,10,6,,0.00,0,,101
2012-9-3,84,74,64,72,66,61,89,79,58,29.97,29.94,29.90,10,7,2,12,4,,0.03,1,Rain,190
2012-9-4,93,76,60,72,63,55,88,66,36,29.94,29.86,29.77,10,7,0,17,3,24,0.00,3,Fog,187
2012-9-5,80,70,60,64,58,54,88,73,42,29.94,29.86,29.78,10,10,3,31,12,44,0.78,3,Rain,296
2012-9-6,80,65,50,55,48,37,88,59,23,30.02,29.96,29.89,10,10,10,9,3,,0.00,1,,89
2012-9-7,71,60,48,57,51,41,88,69,38,30.03,29.92,29.82,10,10,5,20,7,29,0.04,2,Rain,359
2012-9-8,78,60,42,48,42,32,87,58,20,30.05,29.98,29.82,10,10,10,25,8,34,0.00,1,,295
2012-9-9,73,60,48,54,46,39,87,65,29,30.20,30.13,30.02,10,10,10,10,6,16,0.00,0,,351
2012-9-10,78,63,48,52,45,39,87,55,24,30.16,30.08,29.97,10,10,10,20,9,28,0.00,0,,169
2012-9-11,89,73,57,54,46,30,77,45,13,29.98,29.95,29.89,10,10,10,24,12,31,0.00,0,,180
2012-9-12,75,62,50,57,50,23,88,65,16,30.28,30.11,29.97,10,10,7,20,8,28,0.53,3,Rain,20
2012-9-13,69,60,48,52,46,30,88,71,23,30.40,30.34,30.29,10,10,10,10,5,,0.27,2,Rain,266
2012-9-14,77,60,44,50,43,30,93,61,18,30.35,30.31,30.27,10,10,7,9,4,,0.00,0,,194
2012-9-15,78,62,46,48,39,25,87,52,14,30.29,30.21,30.10,10,10,10,17,7,24,0.00,0,,193
2012-9-16,78,63,48,57,51,43,87,67,42,30.10,30.00,29.92,10,10,10,17,8,24,0.00,0,,198
2012-9-17,62,54,46,57,47,37,88,72,42,29.99,29.94,29.90,10,10,4,17,7,25,0.10,4,Rain,322
2012-9-18,62,50,39,43,35,21,87,60,22,30.04,30.01,29.97,10,10,7,14,6,24,0.00,2,,308
2012-9-19,80,63,46,41,34,23,66,40,15,29.97,29.83,29.68,10,10,10,20,10,30,0.00,1,,220
2012-9-20,66,54,42,37,30,18,76,48,15,29.97,29.93,29.90,10,10,10,20,8,28,0.00,0,,284
2012-9-21,66,55,44,48,43,37,93,71,37,29.93,29.87,29.80,10,10,10,10,3,,0.20,6,Rain,7
2012-9-22,57,46,35,43,33,27,82,63,38,30.25,30.11,29.83,10,10,10,17,10,26,0.00,3,,307
2012-9-23,59,44,28,34,27,16,93,61,19,30.33,30.27,30.22,10,10,10,12,4,22,0.00,0,,310
2012-9-24,77,55,33,37,27,19,75,42,12,30.22,30.01,29.83,10,10,10,22,9,30,0.00,0,,204
2012-9-25,80,60,41,43,33,18,81,45,10,29.93,29.85,29.81,10,10,10,13,5,10,0.00,0,,307
2012-9-26,69,52,35,39,31,18,87,50,14,30.18,30.07,29.96,10,10,7,8,4,,0.00,0,,39
2012-9-27,71,54,37,41,35,27,87,55,20,30.27,30.21,30.17,10,10,5,8,4,,0.04,0,,87
2012-9-28,75,57,39,43,35,21,87,54,13,30.25,30.19,30.14,10,10,10,6,2,,0.00,0,,189
2012-9-29,84,63,42,43,32,9,81,46,6,30.15,30.09,30.01,10,10,7,14,3,20,0.00,0,,318
2012-9-30,78,62,46,43,35,18,82,46,10,30.03,29.97,29.93,10,10,7,8,4,,0.00,0,,54